createdAt,value
2022-10-09T00:01:14.761Z,10.03
2022-10-09T00:03:43.792Z,10.00
2022-10-09T00:06:13.084Z,9.96
2022-10-09T00:08:40.245Z,9.91
2022-10-09T00:11:08.283Z,9.94
2022-10-09T00:13:35.929Z,9.93
2022-10-09T00:16:07.860Z,9.93
2022-10-09T00:18:35.272Z,9.93
2022-10-09T00:21:02.577Z,9.94
2022-10-09T00:23:29.537Z,9.98
2022-10-09T00:25:58.760Z,9.96
2022-10-09T00:28:27.554Z,9.97
2022-10-09T00:30:54.734Z,9.98
2022-10-09T00:33:22.005Z,9.99
2022-10-09T00:35:49.127Z,9.95
2022-10-09T00:38:16.307Z,9.92
2022-10-09T00:40:43.082Z,9.94
2022-10-09T00:43:18.213Z,9.94
2022-10-09T00:45:51.600Z,9.96
2022-10-09T00:48:18.913Z,9.96
2022-10-09T00:50:50.730Z,9.81
2022-10-09T00:53:20.379Z,9.84
2022-10-09T00:55:47.373Z,9.85
2022-10-09T00:58:14.628Z,9.82
2022-10-09T01:00:41.821Z,9.78
2022-10-09T01:03:08.783Z,9.78
2022-10-09T01:06:11.517Z,9.70
2022-10-09T01:08:45.363Z,9.40
2022-10-09T01:11:12.210Z,9.50
2022-10-09T01:13:54.099Z,9.56
2022-10-09T01:16:27.018Z,9.58
2022-10-09T01:19:01.178Z,9.49
2022-10-09T01:21:44.003Z,9.44
2022-10-09T01:24:38.402Z,9.54
2022-10-09T01:27:09.669Z,9.57
2022-10-09T01:29:41.300Z,9.55
2022-10-09T01:32:09.670Z,9.29
2022-10-09T01:34:38.603Z,9.31
2022-10-09T01:37:06.071Z,9.35
2022-10-09T01:39:34.653Z,9.31
2022-10-09T01:42:01.705Z,9.36
2022-10-09T01:44:30.452Z,9.39
2022-10-09T01:47:00.246Z,9.36
2022-10-09T01:49:27.064Z,9.38
2022-10-09T01:52:01.594Z,9.37
2022-10-09T01:54:39.928Z,9.28
2022-10-09T01:57:08.680Z,9.30
2022-10-09T01:59:39.130Z,9.20
2022-10-09T02:02:07.695Z,9.24
2022-10-09T02:04:37.402Z,9.06
2022-10-09T02:07:05.046Z,9.15
2022-10-09T02:09:32.582Z,9.23
2022-10-09T02:12:02.564Z,9.22
2022-10-09T02:14:29.353Z,9.24
2022-10-09T02:17:04.853Z,9.24
2022-10-09T02:19:37.463Z,9.31
2022-10-09T02:22:19.191Z,9.37
2022-10-09T02:24:46.478Z,9.39
2022-10-09T02:27:13.738Z,9.43
2022-10-09T02:29:45.226Z,9.35
2022-10-09T02:32:12.550Z,9.44
2022-10-09T02:34:39.387Z,9.43
2022-10-09T02:37:06.937Z,9.45
2022-10-09T02:39:33.839Z,9.52
2022-10-09T02:42:00.668Z,9.50
2022-10-09T02:44:27.644Z,9.48
2022-10-09T02:46:54.436Z,9.45
2022-10-09T02:49:22.010Z,9.52
2022-10-09T02:51:48.803Z,9.54
2022-10-09T02:54:15.644Z,9.56
2022-10-09T02:56:42.467Z,9.54
2022-10-09T02:59:09.328Z,9.56
2022-10-09T03:01:36.331Z,9.60
2022-10-09T03:04:03.750Z,9.29
2022-10-09T03:06:30.749Z,9.64
2022-10-09T03:08:57.647Z,9.63
2022-10-09T03:11:25.297Z,9.56
2022-10-09T03:13:52.502Z,9.63
2022-10-09T03:16:21.700Z,9.66
2022-10-09T03:18:49.231Z,9.65
2022-10-09T03:21:18.435Z,9.66
2022-10-09T03:23:45.358Z,9.60
2022-10-09T03:26:15.351Z,9.57
2022-10-09T03:28:45.647Z,9.64
2022-10-09T03:31:22.579Z,9.51
2022-10-09T03:33:59.350Z,9.63
2022-10-09T03:36:26.302Z,9.62
2022-10-09T03:38:53.066Z,9.65
2022-10-09T03:41:19.854Z,9.65
2022-10-09T03:43:46.642Z,9.62
2022-10-09T03:46:13.557Z,9.60
2022-10-09T03:48:40.366Z,9.70
2022-10-09T03:51:07.443Z,9.77
2022-10-09T03:53:34.412Z,9.85
2022-10-09T03:56:01.291Z,9.92
2022-10-09T03:58:28.146Z,9.93
2022-10-09T04:00:55.203Z,9.99
2022-10-09T04:03:22.074Z,10.09
2022-10-09T04:05:48.904Z,10.31
2022-10-09T04:08:16.574Z,10.56
2022-10-09T04:10:43.745Z,10.71
2022-10-09T04:13:10.535Z,10.88
2022-10-09T04:15:37.679Z,10.92
2022-10-09T04:18:04.806Z,10.95
2022-10-09T04:20:31.883Z,11.49
2022-10-09T04:22:58.757Z,11.62
2022-10-09T04:25:25.608Z,11.68
2022-10-09T04:27:52.431Z,11.85
2022-10-09T04:30:19.341Z,12.18
2022-10-09T04:32:48.387Z,12.08
2022-10-09T04:35:16.781Z,11.93
2022-10-09T04:37:43.767Z,11.79
2022-10-09T04:40:10.936Z,11.60
2022-10-09T04:42:37.883Z,11.70
2022-10-09T04:45:05.209Z,11.70
2022-10-09T04:47:32.077Z,11.70
2022-10-09T04:49:58.839Z,11.74
2022-10-09T04:52:26.359Z,11.81
2022-10-09T04:54:53.200Z,11.77
2022-10-09T04:57:20.067Z,11.79
2022-10-09T04:59:47.183Z,11.83
2022-10-09T05:02:14.130Z,11.79
2022-10-09T05:04:40.999Z,11.83
2022-10-09T05:07:07.877Z,11.90
2022-10-09T05:09:34.729Z,11.90
2022-10-09T05:12:01.794Z,11.97
2022-10-09T05:14:28.584Z,12.00
2022-10-09T05:17:13.218Z,12.19
2022-10-09T05:19:41.216Z,12.22
2022-10-09T05:22:08.078Z,12.30
2022-10-09T05:24:34.958Z,12.34
2022-10-09T05:27:01.839Z,12.38
2022-10-09T05:29:28.667Z,12.47
2022-10-09T05:31:57.986Z,12.53
2022-10-09T05:34:24.833Z,12.64
2022-10-09T05:36:51.784Z,12.72
2022-10-09T05:39:18.660Z,12.82
2022-10-09T05:41:45.601Z,13.03
2022-10-09T05:44:12.437Z,13.34
2022-10-09T05:46:39.352Z,13.59
2022-10-09T05:49:06.405Z,13.80
2022-10-09T05:51:36.136Z,13.92
2022-10-09T05:54:03.589Z,14.14
2022-10-09T05:56:31.323Z,14.29
2022-10-09T05:59:00.558Z,14.25
2022-10-09T06:01:30.001Z,14.18
2022-10-09T06:04:00.668Z,14.08
2022-10-09T06:06:29.398Z,14.13
2022-10-09T06:08:56.533Z,14.25
2022-10-09T06:11:31.700Z,14.31
2022-10-09T06:14:03.153Z,14.53
2022-10-09T06:16:33.559Z,14.58
2022-10-09T06:19:00.686Z,14.76
2022-10-09T06:21:28.164Z,14.97
2022-10-09T06:23:59.491Z,15.11
2022-10-09T06:26:29.141Z,15.25
2022-10-09T06:28:58.575Z,15.30
2022-10-09T06:31:27.697Z,15.33
2022-10-09T06:33:55.361Z,15.42
2022-10-09T06:36:25.186Z,15.42
2022-10-09T06:38:54.131Z,15.51
2022-10-09T06:41:25.673Z,15.57
2022-10-09T06:44:00.927Z,15.57
2022-10-09T06:46:36.499Z,15.62
2022-10-09T06:49:05.852Z,15.72
2022-10-09T06:51:40.833Z,15.78
2022-10-09T06:54:12.835Z,15.87
2022-10-09T06:56:40.092Z,15.88
2022-10-09T06:59:07.664Z,15.95
2022-10-09T07:01:34.797Z,15.98
2022-10-09T07:04:07.327Z,16.17
2022-10-09T07:06:37.961Z,16.26
2022-10-09T07:09:07.408Z,16.19
2022-10-09T07:11:36.641Z,16.37
2022-10-09T07:14:05.850Z,16.51
2022-10-09T07:16:38.644Z,16.57
2022-10-09T07:19:08.181Z,16.69
2022-10-09T07:21:35.659Z,16.76
2022-10-09T07:24:03.934Z,16.76
2022-10-09T07:26:32.490Z,16.79
2022-10-09T07:28:59.963Z,16.96
2022-10-09T07:31:27.021Z,17.18
2022-10-09T07:33:56.568Z,17.17
2022-10-09T07:36:23.827Z,17.32
2022-10-09T07:38:55.323Z,17.28
2022-10-09T07:41:24.617Z,17.35
2022-10-09T07:43:51.537Z,17.55
2022-10-09T07:46:20.522Z,17.47
2022-10-09T07:48:47.918Z,17.80
2022-10-09T07:51:26.141Z,17.98
2022-10-09T07:53:53.712Z,18.14
2022-10-09T07:56:22.534Z,18.07
2022-10-09T07:58:54.259Z,18.15
2022-10-09T08:01:22.337Z,18.38
2022-10-09T08:03:49.704Z,18.55
2022-10-09T08:06:17.091Z,18.46
2022-10-09T08:08:44.143Z,18.50
2022-10-09T08:11:12.863Z,18.73
2022-10-09T08:13:40.244Z,18.80
2022-10-09T08:16:07.316Z,18.68
2022-10-09T08:18:34.578Z,18.99
2022-10-09T08:21:06.543Z,19.24
2022-10-09T08:23:33.589Z,19.27
2022-10-09T08:26:08.766Z,18.99
2022-10-09T08:28:36.342Z,19.04
2022-10-09T08:31:13.306Z,18.84
2022-10-09T08:33:40.691Z,19.18
2022-10-09T08:36:09.689Z,19.08
2022-10-09T08:38:47.062Z,19.11
2022-10-09T08:41:27.774Z,19.32
2022-10-09T08:44:05.339Z,19.38
2022-10-09T08:54:01.191Z,19.51
2022-10-09T08:56:29.390Z,19.77
2022-10-09T08:58:56.278Z,19.96
2022-10-09T09:01:29.447Z,20.22
2022-10-09T09:04:14.976Z,19.89
2022-10-09T09:06:47.885Z,19.38
2022-10-09T09:09:34.109Z,19.41
2022-10-09T09:12:07.261Z,19.80
2022-10-09T09:14:57.186Z,20.22
2022-10-09T09:17:44.243Z,20.14
2022-10-09T09:20:36.416Z,20.53
2022-10-09T09:23:03.341Z,20.34
2022-10-09T09:25:35.396Z,20.55
2022-10-09T09:28:14.196Z,20.57
2022-10-09T09:30:50.925Z,20.58
2022-10-09T09:33:45.442Z,20.82
2022-10-09T09:36:22.928Z,20.86
2022-10-09T09:39:35.093Z,21.05
2022-10-09T09:41:37.669Z,20.58
2022-10-09T09:44:05.207Z,20.19
2022-10-09T09:46:32.542Z,20.50
2022-10-09T09:48:59.418Z,20.78
2022-10-09T09:51:29.644Z,20.87
2022-10-09T09:54:03.745Z,20.60
2022-10-09T09:57:11.061Z,20.68
2022-10-09T09:59:36.501Z,20.93
2022-10-09T10:02:05.981Z,20.92
2022-10-09T10:04:32.968Z,21.31
2022-10-09T10:06:59.800Z,21.49
2022-10-09T10:09:27.188Z,21.37
2022-10-09T10:12:03.468Z,20.97
2022-10-09T10:14:31.945Z,21.37
2022-10-09T10:17:00.547Z,21.52
2022-10-09T10:19:34.946Z,21.19
2022-10-09T10:22:06.659Z,21.21
2022-10-09T10:24:45.010Z,21.30
2022-10-09T10:27:24.754Z,21.75
2022-10-09T10:30:05.199Z,22.05
2022-10-09T10:32:53.740Z,21.60
2022-10-09T10:35:24.328Z,21.61
2022-10-09T10:38:10.197Z,22.14
2022-10-09T10:40:57.269Z,21.81
2022-10-09T10:43:30.156Z,21.50
2022-10-09T10:46:08.857Z,22.15
2022-10-09T10:48:47.016Z,21.45
2022-10-09T10:51:13.869Z,21.77
2022-10-09T10:53:58.266Z,21.52
2022-10-09T10:56:37.801Z,21.92
2022-10-09T10:59:26.218Z,21.88
2022-10-09T11:02:10.029Z,21.80
2022-10-09T11:04:39.530Z,21.23
2022-10-09T11:07:41.771Z,21.80
2022-10-09T11:10:25.528Z,21.40
2022-10-09T11:12:55.309Z,21.19
2022-10-09T11:15:47.859Z,21.54
2022-10-09T11:18:56.096Z,21.64
2022-10-09T11:22:03.148Z,21.02
2022-10-09T11:24:52.978Z,21.33
2022-10-09T11:27:40.152Z,21.36
2022-10-09T11:30:11.985Z,21.80
2022-10-09T11:32:42.889Z,22.18
2022-10-09T11:35:12.680Z,22.19
2022-10-09T11:37:41.180Z,22.22
2022-10-09T11:40:21.030Z,22.29
2022-10-09T11:43:00.131Z,21.85
2022-10-09T11:45:35.987Z,22.20
2022-10-09T11:48:16.293Z,21.89
2022-10-09T11:50:59.422Z,22.00
2022-10-09T11:53:28.290Z,21.92
2022-10-09T11:56:09.059Z,22.08
2022-10-09T11:58:36.266Z,21.68
2022-10-09T12:01:19.965Z,21.88
2022-10-09T12:03:46.891Z,21.89
2022-10-09T12:06:16.214Z,22.05
2022-10-09T12:09:01.084Z,21.97
2022-10-09T12:11:28.336Z,22.40
2022-10-09T12:14:00.647Z,22.57
2022-10-09T12:16:46.592Z,22.21
2022-10-09T12:19:24.473Z,22.49
2022-10-09T12:22:06.771Z,22.63
2022-10-09T12:24:45.912Z,22.75
2022-10-09T12:27:28.045Z,22.78
2022-10-09T12:29:57.901Z,22.91
2022-10-09T12:32:35.591Z,22.99
2022-10-09T12:35:20.676Z,22.93
2022-10-09T12:37:47.543Z,22.95
2022-10-09T12:40:17.960Z,22.73
2022-10-09T12:42:45.152Z,22.62
2022-10-09T12:45:25.681Z,22.58
2022-10-09T12:47:53.702Z,22.35
2022-10-09T12:50:25.011Z,22.56
2022-10-09T12:53:04.054Z,21.98
2022-10-09T12:55:31.712Z,22.16
2022-10-09T12:58:15.573Z,22.00
2022-10-09T13:00:42.759Z,22.34
2022-10-09T13:03:27.038Z,22.59
2022-10-09T13:05:53.879Z,22.21
2022-10-09T13:08:25.523Z,22.17
2022-10-09T13:10:52.865Z,21.39
2022-10-09T13:13:26.145Z,21.89
2022-10-09T13:16:01.629Z,22.11
2022-10-09T13:18:28.883Z,22.01
2022-10-09T13:21:31.434Z,22.05
2022-10-09T13:24:11.985Z,21.53
2022-10-09T13:26:39.709Z,21.68
2022-10-09T13:29:07.223Z,21.89
2022-10-09T13:31:36.596Z,21.98
2022-10-09T13:34:13.691Z,22.03
2022-10-09T13:36:40.698Z,22.05
2022-10-09T13:39:14.516Z,21.67
2022-10-09T13:41:42.909Z,21.82
2022-10-09T13:44:09.886Z,21.59
2022-10-09T13:46:36.940Z,21.43
2022-10-09T13:49:04.115Z,21.39
2022-10-09T13:51:32.053Z,21.48
2022-10-09T13:53:59.256Z,21.32
2022-10-09T13:56:26.274Z,21.46
2022-10-09T13:58:53.357Z,21.34
2022-10-09T14:01:20.273Z,21.49
2022-10-09T14:03:47.223Z,21.41
2022-10-09T14:06:14.097Z,21.44
2022-10-09T14:08:41.001Z,21.23
2022-10-09T14:11:07.890Z,21.42
2022-10-09T14:13:34.697Z,21.46
2022-10-09T14:16:05.984Z,21.49
2022-10-09T14:18:33.383Z,21.48
2022-10-09T14:21:00.211Z,21.40
2022-10-09T14:25:53.844Z,21.22
2022-10-09T14:28:20.797Z,20.94
2022-10-09T14:30:47.939Z,20.62
2022-10-09T14:33:18.508Z,20.75
2022-10-09T14:35:52.231Z,20.71
2022-10-09T14:38:20.220Z,20.53
2022-10-09T14:40:47.138Z,20.29
2022-10-09T14:43:13.964Z,20.23
2022-10-09T14:45:41.114Z,20.23
2022-10-09T14:48:08.009Z,20.22
2022-10-09T14:50:36.460Z,20.15
2022-10-09T14:53:07.255Z,20.05
2022-10-09T14:55:35.176Z,19.93
2022-10-09T14:58:02.035Z,19.81
2022-10-09T15:00:28.883Z,19.80
2022-10-09T15:02:58.958Z,19.50
2022-10-09T15:05:26.628Z,19.56
2022-10-09T15:07:53.487Z,19.55
2022-10-09T15:10:20.323Z,19.44
2022-10-09T15:12:47.189Z,19.36
2022-10-09T15:15:14.081Z,19.27
2022-10-09T15:17:41.044Z,19.15
2022-10-09T15:20:08.358Z,19.05
2022-10-09T15:22:35.269Z,18.91
2022-10-09T15:25:02.042Z,18.81
2022-10-09T15:27:28.976Z,18.65
2022-10-09T15:29:56.656Z,18.60
2022-10-09T15:32:24.213Z,18.50
2022-10-09T15:34:51.043Z,18.39
2022-10-09T15:37:18.398Z,18.29
2022-10-09T15:39:46.466Z,18.19
2022-10-09T15:42:13.219Z,18.13
2022-10-09T15:44:41.597Z,18.06
2022-10-09T15:47:08.552Z,17.99
2022-10-09T15:49:35.388Z,17.88
2022-10-09T15:52:02.251Z,17.80
2022-10-09T15:54:29.111Z,17.68
2022-10-09T15:56:56.029Z,17.60
2022-10-09T15:59:22.996Z,17.55
2022-10-09T16:01:50.169Z,17.44
2022-10-09T16:04:17.118Z,17.39
2022-10-09T16:06:44.079Z,17.25
2022-10-09T16:09:11.348Z,17.25
2022-10-09T16:11:38.361Z,17.21
2022-10-09T16:14:05.133Z,17.15
2022-10-09T16:16:31.940Z,17.09
2022-10-09T16:19:00.157Z,17.00
2022-10-09T16:21:28.439Z,16.91
2022-10-09T16:23:58.855Z,16.82
2022-10-09T16:26:27.939Z,16.74
2022-10-09T16:28:59.620Z,16.65
2022-10-09T16:31:34.698Z,16.55
2022-10-09T16:34:02.500Z,16.44
2022-10-09T16:36:29.476Z,16.33
2022-10-09T16:38:57.660Z,16.22
2022-10-09T16:41:25.300Z,16.15
2022-10-09T16:43:54.170Z,16.07
2022-10-09T16:49:01.473Z,15.88
2022-10-09T16:51:35.197Z,15.81
2022-10-09T16:54:04.143Z,15.75
2022-10-09T16:56:33.858Z,15.64
2022-10-09T16:59:03.625Z,15.58
2022-10-09T17:01:30.970Z,15.50
2022-10-09T17:03:59.223Z,15.47
2022-10-09T17:06:26.656Z,15.43
2022-10-09T17:08:55.887Z,15.40
2022-10-09T17:11:23.198Z,15.33
2022-10-09T17:13:50.498Z,15.32
2022-10-09T17:16:24.062Z,15.29
2022-10-09T17:18:51.418Z,15.17
2022-10-09T17:21:18.723Z,15.01
2022-10-09T17:23:46.651Z,14.91
2022-10-09T17:26:17.021Z,14.84
2022-10-09T17:28:44.407Z,14.76
2022-10-09T17:31:16.469Z,14.80
2022-10-09T17:33:46.109Z,14.70
2022-10-09T17:36:15.745Z,14.68
2022-10-09T17:38:42.793Z,14.65
2022-10-09T17:41:11.676Z,14.66
2022-10-09T17:43:39.004Z,14.63
2022-10-09T17:46:06.363Z,14.59
2022-10-09T17:48:34.655Z,14.53
2022-10-09T17:51:04.092Z,14.56
2022-10-09T17:53:31.693Z,14.44
2022-10-09T17:56:03.150Z,14.29
2022-10-09T17:58:30.052Z,14.29
2022-10-09T18:00:56.936Z,14.30
2022-10-09T18:03:24.181Z,14.35
2022-10-09T18:05:51.434Z,14.33
2022-10-09T18:08:19.519Z,14.32
2022-10-09T18:10:46.670Z,14.34
2022-10-09T18:13:13.492Z,14.43
2022-10-09T18:15:42.439Z,14.37
2022-10-09T18:18:10.108Z,14.41
2022-10-09T18:20:38.543Z,14.29
2022-10-09T18:23:06.311Z,14.29
2022-10-09T18:25:33.441Z,14.29
2022-10-09T18:28:00.417Z,14.15
2022-10-09T18:30:27.822Z,14.06
2022-10-09T18:32:54.893Z,14.05
2022-10-09T18:35:22.052Z,14.02
2022-10-09T18:37:48.885Z,14.03
2022-10-09T18:40:15.739Z,14.04
2022-10-09T18:42:42.583Z,13.98
2022-10-09T18:45:10.508Z,13.84
2022-10-09T18:47:37.310Z,13.86
2022-10-09T18:50:08.239Z,13.91
2022-10-09T18:52:37.481Z,13.65
2022-10-09T18:55:06.856Z,13.70
2022-10-09T18:57:34.316Z,13.67
2022-10-09T19:00:02.154Z,13.62
2022-10-09T19:02:29.200Z,13.59
2022-10-09T19:04:57.312Z,13.59
2022-10-09T19:07:24.945Z,13.60
2022-10-09T19:09:56.993Z,13.63
2022-10-09T19:12:24.596Z,13.60
2022-10-09T19:14:51.638Z,13.62
2022-10-09T19:17:18.788Z,13.69
2022-10-09T19:19:45.751Z,13.61
2022-10-09T19:22:16.477Z,13.72
2022-10-09T19:24:45.253Z,13.70
2022-10-09T19:27:12.146Z,13.71
2022-10-09T19:29:39.091Z,13.72
2022-10-09T19:32:06.213Z,13.70
2022-10-09T19:34:33.075Z,13.71
2022-10-09T19:36:59.946Z,13.66
2022-10-09T19:39:27.910Z,13.62
2022-10-09T19:41:54.735Z,13.58
2022-10-09T19:44:21.757Z,13.57
2022-10-09T19:46:48.675Z,13.56
2022-10-09T19:49:16.585Z,13.53
2022-10-09T19:51:43.776Z,13.55
2022-10-09T19:54:10.858Z,13.46
2022-10-09T19:56:38.527Z,13.41
2022-10-09T19:59:07.170Z,13.26
2022-10-09T20:01:35.490Z,13.21
2022-10-09T20:04:05.187Z,13.14
2022-10-09T20:06:32.165Z,13.12
2022-10-09T20:08:59.339Z,13.03
2022-10-09T20:11:26.720Z,13.06
2022-10-09T20:13:56.168Z,13.07
2022-10-09T20:16:23.933Z,13.06
2022-10-09T20:18:51.755Z,13.06
2022-10-09T20:21:19.549Z,13.04
2022-10-09T20:23:46.442Z,12.98
2022-10-09T20:26:17.998Z,12.94
2022-10-09T20:28:46.864Z,12.84
2022-10-09T20:31:18.035Z,12.91
2022-10-09T20:33:46.069Z,12.94
2022-10-09T20:36:21.784Z,12.91
2022-10-09T20:38:48.902Z,12.86
2022-10-09T20:41:15.854Z,12.84
2022-10-09T20:43:42.807Z,12.80
2022-10-09T20:46:14.252Z,12.75
2022-10-09T20:48:41.814Z,12.71
2022-10-09T20:51:09.835Z,12.68
2022-10-09T20:53:36.679Z,12.66
2022-10-09T20:56:06.085Z,12.64
2022-10-09T20:58:33.753Z,12.63
2022-10-09T21:01:00.841Z,12.49
2022-10-09T21:03:27.741Z,12.50
2022-10-09T21:05:54.696Z,12.58
2022-10-09T21:08:21.481Z,12.54
2022-10-09T21:10:50.161Z,12.49
2022-10-09T21:13:17.318Z,12.44
2022-10-09T21:15:46.946Z,12.37
2022-10-09T21:18:15.003Z,12.42
2022-10-09T21:20:43.376Z,12.34
2022-10-09T21:23:11.266Z,12.27
2022-10-09T21:25:38.473Z,12.32
2022-10-09T21:28:05.671Z,12.28
2022-10-09T21:30:41.208Z,12.27
2022-10-09T21:33:09.316Z,12.15
2022-10-09T21:35:44.426Z,12.05
2022-10-09T21:38:19.667Z,12.09
2022-10-09T21:40:47.585Z,12.12
2022-10-09T21:43:14.399Z,12.12
2022-10-09T21:45:41.391Z,12.08
2022-10-09T21:48:08.400Z,12.14
2022-10-09T21:50:36.488Z,12.14
2022-10-09T21:53:03.680Z,12.13
2022-10-09T21:55:30.439Z,11.98
2022-10-09T21:57:57.298Z,11.86
2022-10-09T22:00:24.169Z,11.80
2022-10-09T22:02:51.176Z,11.85
2022-10-09T22:05:18.482Z,11.97
2022-10-09T22:07:45.324Z,12.01
2022-10-09T22:10:12.291Z,11.97
2022-10-09T22:12:39.442Z,11.95
2022-10-09T22:15:06.632Z,11.88
2022-10-09T22:17:33.483Z,11.90
2022-10-09T22:20:00.403Z,11.92
2022-10-09T22:22:27.339Z,11.86
2022-10-09T22:24:54.112Z,11.83
2022-10-09T22:27:20.891Z,11.78
2022-10-09T22:29:47.687Z,11.76
2022-10-09T22:32:14.427Z,11.76
2022-10-09T22:34:41.252Z,11.76
2022-10-09T22:37:08.073Z,11.76
2022-10-09T22:39:34.990Z,11.68
2022-10-09T22:42:01.853Z,11.63
2022-10-09T22:44:28.849Z,11.63
2022-10-09T22:46:55.698Z,11.65
2022-10-09T22:49:22.484Z,11.67
2022-10-09T22:51:49.294Z,11.65
2022-10-09T22:54:16.148Z,11.65
2022-10-09T22:56:46.605Z,11.67
2022-10-09T22:59:16.428Z,11.68
2022-10-09T23:01:48.174Z,11.71
2022-10-09T23:04:16.716Z,11.74
2022-10-09T23:06:44.316Z,11.77
2022-10-09T23:09:13.214Z,11.80
2022-10-09T23:11:40.115Z,11.78
2022-10-09T23:14:07.299Z,11.85
2022-10-09T23:16:34.311Z,11.86
2022-10-09T23:19:06.186Z,11.85
2022-10-09T23:21:34.464Z,11.81
2022-10-09T23:24:01.307Z,11.78
2022-10-09T23:26:30.293Z,11.74
2022-10-09T23:29:00.009Z,11.69
2022-10-09T23:31:27.836Z,11.63
2022-10-09T23:33:55.437Z,11.59
2022-10-09T23:36:24.298Z,11.52
2022-10-09T23:38:51.573Z,11.39
2022-10-09T23:41:21.600Z,11.27
2022-10-09T23:43:48.946Z,11.17
2022-10-09T23:46:18.382Z,11.06
2022-10-09T23:48:45.631Z,10.96
2022-10-09T23:51:14.131Z,10.90
2022-10-09T23:53:41.677Z,10.78
2022-10-09T23:56:32.568Z,10.67
2022-10-09T23:59:01.050Z,10.60
